Address 0x0014d8a0c42e5ec5d69b2b9190186c494e2a6905 9

Txn Hash Method
Block
From
To
Value [Txn Fee]
0x6f8e20ceb8f61eca0267712f7fdc09edddd43f3e5022fb50003a99eed3d9a2c0Transfer154572542021-12-31 15:45:4120 days 9 hrs ago0x0014d8a0c42e5ec5d69b2b9190186c494e2a6905OUT0xbcc5c3ece3c2cb58a16ddb64e6926105fcd63f510.750635131654512 BNB0.00021
0x8d90eb4698ea8b006c2391aa2c6a57acc04ecf30637c9020114e307a245dc1f3Mint147640152021-12-07 10:49:4744 days 14 hrs ago0x0014d8a0c42e5ec5d69b2b9190186c494e2a6905OUT 0xc9f654d481e79d01448030b08516b7f9fcf71e130 BNB0.00036759
0x79a8995ce1115e787e03bf0e4534a01576186a7a00b54b9d201438c6a254e59bTransfer143975072021-11-24 16:10:3857 days 9 hrs ago0x0014d8a0c42e5ec5d69b2b9190186c494e2a6905OUT0x7805fa0360110ea6deb508b00e3d19290c9fd0e51 BNB0.00021
0x4e7a143856e67e0d9b3ab2a8f781621df72d813190653ac3f62bb300950532acDeposit Collater...143686562021-11-23 15:58:4158 days 9 hrs ago0x0014d8a0c42e5ec5d69b2b9190186c494e2a6905OUT 0x5069fa2330b8ca3ba1838f05e2fffe432a1201410 BNB0.0007116
0x4d1d9cf3779def39148d588f15d61f81b584a9e6eb87516724a8b232666b90d7Borrow Token143507892021-11-23 0:31:3159 days 50 mins ago0x0014d8a0c42e5ec5d69b2b9190186c494e2a6905OUT 0x5069fa2330b8ca3ba1838f05e2fffe432a1201410 BNB0.00023743
0x7988678da99feb2fe77d43d5bf5f4999223de98ead49b8e0e180e1ef2d8b01e7Borrow Token143507352021-11-23 0:28:4959 days 53 mins ago0x0014d8a0c42e5ec5d69b2b9190186c494e2a6905OUT 0x5069fa2330b8ca3ba1838f05e2fffe432a1201410 BNB0.00023767
0x397dc51b3a1076a597535c8cea76820d35c32c5e9f7d6930c9ad2ba5290aab5dDeposit Collater...143505492021-11-23 0:19:3159 days 1 hr ago0x0014d8a0c42e5ec5d69b2b9190186c494e2a6905OUT 0x5069fa2330b8ca3ba1838f05e2fffe432a1201410 BNB0.0007116
0x8aae8526a1a9a005e59ec1c50cac3f1224e2928fea045ff13f302fee899e0cdeApprove143504752021-11-23 0:15:4959 days 1 hr ago0x0014d8a0c42e5ec5d69b2b9190186c494e2a6905OUT 0xd66c6b4f0be8ce5b39d52e0fd1344c389929b3780 BNB0.00044072
0x19d27927b58b01d7c4139a1466553f26af7492d2836a5c5b057f3edd34b1098fTransfer143478582021-11-22 22:04:2359 days 3 hrs ago0x0014d8a0c42e5ec5d69b2b9190186c494e2a6905OUT 0xd66c6b4f0be8ce5b39d52e0fd1344c389929b3780 BNB0.00036103
0x92c26e65e4a122e69640575824254663ee7437e6a9dbe33b919c8b667174842bTransfer137808622021-11-03 3:26:2378 days 21 hrs ago0x0014d8a0c42e5ec5d69b2b9190186c494e2a6905OUT 0xd66c6b4f0be8ce5b39d52e0fd1344c389929b3780 BNB0.00036103
0x2a41697dc09165924a8698afff6cb704472ae5b394130daab12b383e25bfed0eSet Meta Provide...137808022021-11-03 3:22:0578 days 22 hrs ago0x0014d8a0c42e5ec5d69b2b9190186c494e2a6905OUT 0x74e3751f8c7928697ae42461ba07f3cbe127aea00 BNB0.00043891
0x6a203d1fefb23a6eef7be914967a19ea55fe202d01ad885e62b21784f0f2d6ef0x60806040137807122021-11-03 3:16:0278 days 22 hrs ago0x0014d8a0c42e5ec5d69b2b9190186c494e2a6905OUT Create: VaultMetaProvider0 BNB0.00246632
0x072b0f4e17eca3c1c48fd4c453afe91de72eea13e4371066e9a5e5b68f60c06e0x60806040137805752021-11-03 3:06:3278 days 22 hrs ago0x0014d8a0c42e5ec5d69b2b9190186c494e2a6905OUT Create: erc20QiStablecoin0 BNB0.04398615
0xa91403588a043638c933f0d8bfa852cb1baad2b188994e06098ab349e5d334190x60806040137801582021-11-03 2:37:4578 days 22 hrs ago0x0014d8a0c42e5ec5d69b2b9190186c494e2a6905OUT Create: VaultMetaRegistry0 BNB0.00320334
0x38aae8d3000a5fcb3897f463e4f496f61c70363609df4527930c6e8f7ae9c2c7Add136259632021-10-28 17:52:3484 days 7 hrs ago0x0014d8a0c42e5ec5d69b2b9190186c494e2a6905OUT 0x132a39366ec1c9541a7f782edf602f2d84e19a870 BNB0.00122712
0x44a78392ea181f1a941bdedc2fb419d479fdc55b32f799b92b6c736032313d13Add136259102021-10-28 17:49:5584 days 7 hrs ago0x0014d8a0c42e5ec5d69b2b9190186c494e2a6905OUT 0x132a39366ec1c9541a7f782edf602f2d84e19a870 BNB0.00150061
0x522135d872b9cef875e9f1e1b835349fc17445c0f7789706e9920f93811c6360Fund136258462021-10-28 17:46:4384 days 7 hrs ago0x0014d8a0c42e5ec5d69b2b9190186c494e2a6905OUT 0x132a39366ec1c9541a7f782edf602f2d84e19a870 BNB0.0005642
0xe02605f57b0a39f1135ff81873d17de24c995d2a8b85083137a108db50b1392dApprove136258162021-10-28 17:45:1384 days 7 hrs ago0x0014d8a0c42e5ec5d69b2b9190186c494e2a6905OUT 0x025a522ebf4eaa663d717d917d6833d6b0ea39460 BNB0.00044095
0x879eabea65b5d06136b986177dcd1e015b3ea698a85b7d93a3dcb93067d04d710x60806040136257742021-10-28 17:43:0784 days 7 hrs ago0x0014d8a0c42e5ec5d69b2b9190186c494e2a6905OUT Create: Farm0 BNB0.01623601
0x302340f3035db325fa9d6bd8818ad9d44a5918e5ac78c70c764db5d188ab9cc9Add135626382021-10-26 12:55:3986 days 12 hrs ago0x0014d8a0c42e5ec5d69b2b9190186c494e2a6905OUT 0xcd892c0614ba4e189e7ce4ff32355e4116bc84610 BNB0.00122712
0x80a6f06791fe28a0ad0127e74425d341babaf2801957cfe6049d2fd73951afe7Add135626092021-10-26 12:54:1286 days 12 hrs ago0x0014d8a0c42e5ec5d69b2b9190186c494e2a6905OUT 0xcd892c0614ba4e189e7ce4ff32355e4116bc84610 BNB0.00150061
0x516249bffc8ac7544020e45d2bbb60927b85476702b51eca1dcf2c7f64abc5c8Fund135625582021-10-26 12:51:3986 days 12 hrs ago0x0014d8a0c42e5ec5d69b2b9190186c494e2a6905OUT 0xcd892c0614ba4e189e7ce4ff32355e4116bc84610 BNB0.00071408
0x880af8e6b24c910e0abe238dae20059118cfe9a929682f65c44430b192ee947eApprove135625412021-10-26 12:50:4886 days 12 hrs ago0x0014d8a0c42e5ec5d69b2b9190186c494e2a6905OUT 0x025a522ebf4eaa663d717d917d6833d6b0ea39460 BNB0.00044095
0x9dd965fba13cec0383f6f8c03db8f48682e3182eea01737394ee25b6da8840c70x60806040135625272021-10-26 12:50:0686 days 12 hrs ago0x0014d8a0c42e5ec5d69b2b9190186c494e2a6905OUT Contract Creation0 BNB0.01623613
0x4de03720ff95e8b4707de1f09c0e4f2799a98d996d0bb630f91e41df5c27e4acApprove135619002021-10-26 12:18:4586 days 13 hrs ago0x0014d8a0c42e5ec5d69b2b9190186c494e2a6905OUT 0x025a522ebf4eaa663d717d917d6833d6b0ea39460 BNB0.00044095
[ Download CSV Export 
Latest 8 internal transactions
Parent Txn Hash Block From To Value
0x449a2175d4987cb5b5cf2db2adcc27ec19d02b9b0747447154f1910674f3c445134773182021-10-23 13:44:3689 days 11 hrs ago 0xc9f654d481e79d01448030b08516b7f9fcf71e130x0014d8a0c42e5ec5d69b2b9190186c494e2a69050.5 BNB
0x23eb9006b1ac14a71a699df6f88ab891a9adde2b1e4b7d80b3123be86593cc6f133928592021-10-20 14:42:3692 days 10 hrs ago 0xc9f654d481e79d01448030b08516b7f9fcf71e130x0014d8a0c42e5ec5d69b2b9190186c494e2a69050.99 BNB
0xe3689cce410630fec6a04f690120a8851c555037bacc554de3d2bc1a19e965ce133397492021-10-18 18:24:5694 days 6 hrs ago 0xc9f654d481e79d01448030b08516b7f9fcf71e130x0014d8a0c42e5ec5d69b2b9190186c494e2a69050.019914742654512466 BNB
0xc3ebea395962165aa4944df90ee077801a6b597cc49d3887014d1ee3071f9863133394182021-10-18 18:08:2394 days 7 hrs ago 0xc9f654d481e79d01448030b08516b7f9fcf71e130x0014d8a0c42e5ec5d69b2b9190186c494e2a69052 BNB
0xdc25cf83ed4cf7c28da6a29e244118e1488bd9f829c981d8bf793f9782299bfb133389612021-10-18 17:45:3294 days 7 hrs ago 0xc9f654d481e79d01448030b08516b7f9fcf71e130x0014d8a0c42e5ec5d69b2b9190186c494e2a69050.02 BNB
0x7e329f2dde49f394f44eda68c4dbea66f7fb55fb6bd9d21ae310993f28fdee23133389482021-10-18 17:44:5394 days 7 hrs ago 0xc9f654d481e79d01448030b08516b7f9fcf71e130x0014d8a0c42e5ec5d69b2b9190186c494e2a69050.05 BNB
0x1652261eb5dcfa6cacaaa652b1480a21a0a21b7c1eef47893f49ad6c60041380133389162021-10-18 17:43:1794 days 7 hrs ago 0xc9f654d481e79d01448030b08516b7f9fcf71e130x0014d8a0c42e5ec5d69b2b9190186c494e2a69050.9 BNB
0xe88ef8dc74e00a1f3b785ad35f6a333ca66d28002dcd57650baff7a66bf6f822133386992021-10-18 17:32:2594 days 7 hrs ago 0xc9f654d481e79d01448030b08516b7f9fcf71e130x0014d8a0c42e5ec5d69b2b9190186c494e2a69050.9 BNB
[ Download CSV Export 
Loading

Contract Name:
0 BNB

Compiler Version
0

Optimization Enabled:
0 BNB

Other Settings:
-NA-
Block Transaction Gas Used Reward
Age Block Fee Address BC Fee Address Voting Power Jailed Incoming
Block Uncle Number Difficulty Gas Used Reward
Loading